Terminal Aerodrome Forecast
Issued by NWS

Home | Current Version | Previous Version | Text Only | Print | Product List | Glossary On
Versions: 1 2 3 4 5 6 7 8 9 10 11 12 13 14 15 16 17 18 19 20
000
FTUS43 KDLH 241733
TAFBRD
TAF
KBRD 241733Z 2418/2518 29010KT P6SM VCSH SCT030 BKN070
      TEMPO 2418/2422 6SM -SHRA BKN035
     FM242300 31009KT P6SM SCT018 BKN060
     FM250300 31007KT P6SM BKN018 OVC060
     FM250700 31007KT P6SM VCSH BKN010 OVC020
     FM251600 31011KT P6SM VCSH BKN025=

USA.gov is the U.S. government's official web portal to all federal, state and local government web resources and services.